Terminal Aerodrome Forecast
Issued by NWS

Current Version | Previous Version | Graphics & Text | Print | Product List | Glossary On
Versions: 1 2 3 4 5 6 7 8 9 10 11 12 13 14 15 16 17 18 19
000
FTUS41 KPBZ 200520
TAFMGW
TAF
KMGW 200520Z 2006/2106 00000KT P6SM FEW250
     FM201600 25006KT P6SM SCT045
     FM210100 23004KT P6SM VCTS BKN035CB
     FM210300 21002KT P6SM SCT035=

USA.gov is the U.S. government's official web portal to all federal, state and local government web resources and services.